Terminal Aerodrome Forecast
Issued by NWS

Current Version | Previous Version | Text Only | Print | Product List | Glossary On
Versions: 1 2 3 4 5 6 7 8 9 10 11 12
000
FTUS46 KMTR 241723
TAFSTS
TAF
KSTS 241723Z 2418/2518 33005KT P6SM FEW050 SCT200
     FM242300 33009KT P6SM FEW040 SCT100 BKN150
     FM250400 33004KT P6SM FEW035 SCT100
     FM251300 33003KT P6SM SCT150=

USA.gov is the U.S. government's official web portal to all federal, state and local government web resources and services.